Terminal Aerodrome Forecast
Issued by NWS Atlanta, GA

Home | Current Version | Previous Version | Text Only | Print | Product List | Glossary On
Versions: 1 2 3 4 5 6 7 8 9 10 11 12 13
720
FTUS42 KFFC 311834 AAA
TAFCSG
TAF AMD
KCSG 311834Z 3119/0118 VRB04KT P6SM VCSH SCT060
     FM010000 00000KT P6SM SCT100
     FM011400 15004KT P6SM FEW040=

USA.gov is the U.S. government's official web portal to all federal, state and local government web resources and services.